createdAt,value
2022-11-10T00:01:14.440Z,63.00
2022-11-10T00:03:40.567Z,62.67
2022-11-10T00:06:04.736Z,60.83
2022-11-10T00:08:27.925Z,59.80
2022-11-10T00:11:01.448Z,56.05
2022-11-10T00:13:25.333Z,52.83
2022-11-10T00:16:05.041Z,58.90
2022-11-10T00:18:27.650Z,56.97
2022-11-10T00:20:51.969Z,56.30
2022-11-10T00:23:14.724Z,50.90
2022-11-10T00:25:37.924Z,51.22
2022-11-10T00:28:01.346Z,52.95
2022-11-10T00:30:24.356Z,51.05
2022-11-10T00:32:49.034Z,48.95
2022-11-10T00:35:11.883Z,47.70
2022-11-10T00:37:36.412Z,50.15
2022-11-10T00:39:59.556Z,54.40
2022-11-10T00:42:22.756Z,51.63
2022-11-10T00:44:45.467Z,53.88
2022-11-10T00:47:09.198Z,47.65
2022-11-10T00:49:31.868Z,48.90
2022-11-10T00:51:56.526Z,51.63
2022-11-10T00:54:21.337Z,54.60
2022-11-10T00:56:44.372Z,51.45
2022-11-10T00:59:07.151Z,53.75
2022-11-10T01:01:30.051Z,53.95
2022-11-10T01:03:53.215Z,56.08
2022-11-10T01:06:18.132Z,56.33
2022-11-10T01:08:42.426Z,55.90
2022-11-10T01:11:08.443Z,55.17
2022-11-10T01:13:32.251Z,57.35
2022-11-10T01:15:56.030Z,54.30
2022-11-10T01:18:20.276Z,56.35
2022-11-10T01:20:43.615Z,57.67
2022-11-10T01:23:06.749Z,56.55
2022-11-10T01:25:29.795Z,55.47
2022-11-10T01:27:54.324Z,55.42
2022-11-10T01:30:17.422Z,55.35
2022-11-10T01:32:40.418Z,54.03
2022-11-10T01:35:03.516Z,54.88
2022-11-10T01:37:26.657Z,57.47
2022-11-10T01:39:49.505Z,57.60
2022-11-10T01:42:12.935Z,61.08
2022-11-10T01:44:38.137Z,60.88
2022-11-10T01:47:00.697Z,61.20
2022-11-10T01:49:27.338Z,63.08
2022-11-10T01:51:53.071Z,59.47
2022-11-10T01:54:20.544Z,62.22
2022-11-10T01:56:47.326Z,59.30
2022-11-10T01:59:15.542Z,56.50
2022-11-10T02:01:39.672Z,58.88
2022-11-10T02:04:05.188Z,59.05
2022-11-10T02:06:30.907Z,55.88
2022-11-10T02:08:55.585Z,58.92
2022-11-10T02:11:18.407Z,54.70
2022-11-10T02:13:42.694Z,55.08
2022-11-10T02:16:06.035Z,54.33
2022-11-10T02:18:30.428Z,53.13
2022-11-10T02:20:54.691Z,52.33
2022-11-10T02:23:46.201Z,47.33
2022-11-10T02:26:09.292Z,48.50
2022-11-10T02:28:35.394Z,48.90
2022-11-10T02:30:59.217Z,50.35
2022-11-10T02:33:22.360Z,48.80
2022-11-10T02:35:45.770Z,49.08
2022-11-10T02:38:10.210Z,48.90
2022-11-10T02:40:33.009Z,49.97
2022-11-10T02:42:56.120Z,49.67
2022-11-10T02:45:18.963Z,48.45
2022-11-10T02:47:41.735Z,47.85
2022-11-10T02:50:04.599Z,48.33
2022-11-10T02:52:27.685Z,49.03
2022-11-10T02:54:52.402Z,48.65
2022-11-10T02:57:14.824Z,49.50
2022-11-10T02:59:37.720Z,49.03
2022-11-10T03:02:00.724Z,50.67
2022-11-10T03:04:24.195Z,47.85
2022-11-10T03:06:47.242Z,50.10
2022-11-10T03:09:10.376Z,48.22
2022-11-10T03:11:35.010Z,48.00
2022-11-10T03:14:02.549Z,47.03
2022-11-10T03:16:25.860Z,48.55
2022-11-10T03:18:48.771Z,50.33
2022-11-10T03:21:11.273Z,48.70
2022-11-10T03:23:34.764Z,46.28
2022-11-10T03:25:57.726Z,48.50
2022-11-10T03:28:22.483Z,46.92
2022-11-10T03:30:45.696Z,47.80
2022-11-10T03:33:09.639Z,49.75
2022-11-10T03:35:33.230Z,48.83
2022-11-10T03:37:55.808Z,47.13
2022-11-10T03:40:18.523Z,45.50
2022-11-10T03:42:44.195Z,47.50
2022-11-10T03:45:10.268Z,47.45
2022-11-10T03:47:32.897Z,45.03
2022-11-10T03:49:56.124Z,46.60
2022-11-10T03:52:19.565Z,47.03
2022-11-10T03:54:42.605Z,47.83
2022-11-10T03:57:05.678Z,42.70
2022-11-10T03:59:28.366Z,43.40
2022-11-10T04:01:52.812Z,37.33
2022-11-10T04:04:29.693Z,31.52
2022-11-10T04:07:10.004Z,32.03
2022-11-10T04:09:33.591Z,37.47
2022-11-10T04:12:13.504Z,38.90
2022-11-10T04:14:53.199Z,35.92
2022-11-10T04:17:17.392Z,38.55
2022-11-10T04:19:40.350Z,36.25
2022-11-10T04:22:03.144Z,36.22
2022-11-10T04:24:26.029Z,38.42
2022-11-10T04:26:48.780Z,41.83
2022-11-10T04:29:13.579Z,43.55
2022-11-10T04:31:38.580Z,43.33
2022-11-10T04:34:04.091Z,43.47
2022-11-10T04:36:29.162Z,43.63
2022-11-10T04:38:52.258Z,41.67
2022-11-10T04:41:16.157Z,43.67
2022-11-10T04:43:39.741Z,40.42
2022-11-10T04:46:03.048Z,39.90
2022-11-10T04:48:26.585Z,39.63
2022-11-10T04:50:51.242Z,39.25
2022-11-10T04:53:13.713Z,37.40
2022-11-10T04:55:39.940Z,38.13
2022-11-10T04:58:02.731Z,35.80
2022-11-10T05:00:26.062Z,33.75
2022-11-10T05:02:48.839Z,33.50
2022-11-10T05:05:11.982Z,38.97
2022-11-10T05:07:36.743Z,42.13
2022-11-10T05:09:59.711Z,48.90
2022-11-10T05:12:22.998Z,46.95
2022-11-10T05:14:46.062Z,49.47
2022-11-10T05:17:08.909Z,48.67
2022-11-10T05:19:31.665Z,40.40
2022-11-10T05:21:54.385Z,41.13
2022-11-10T05:24:18.587Z,44.53
2022-11-10T05:26:41.795Z,56.15
2022-11-10T05:29:04.653Z,57.60
2022-11-10T05:31:27.628Z,57.03
2022-11-10T05:33:50.404Z,66.90
2022-11-10T05:36:13.548Z,43.92
2022-11-10T05:38:42.098Z,40.33
2022-11-10T05:41:08.090Z,50.85
2022-11-10T05:43:31.056Z,57.67
2022-11-10T05:45:54.097Z,56.90
2022-11-10T05:48:16.895Z,61.55
2022-11-10T05:50:40.528Z,57.53
2022-11-10T05:53:03.154Z,52.38
2022-11-10T05:55:28.448Z,47.05
2022-11-10T05:57:54.554Z,46.58
2022-11-10T06:00:24.855Z,43.95
2022-11-10T06:02:47.387Z,43.42
2022-11-10T06:05:11.098Z,41.67
2022-11-10T06:07:34.114Z,38.90
2022-11-10T06:09:56.650Z,37.38
2022-11-10T06:12:19.492Z,40.03
2022-11-10T06:14:43.515Z,39.65
2022-11-10T06:17:07.776Z,36.97
2022-11-10T06:19:30.662Z,35.30
2022-11-10T06:21:59.635Z,36.03
2022-11-10T06:24:24.295Z,33.50
2022-11-10T06:26:46.955Z,34.13
2022-11-10T06:29:09.536Z,35.00
2022-11-10T06:31:33.968Z,35.10
2022-11-10T06:33:56.944Z,34.70
2022-11-10T06:36:21.161Z,35.22
2022-11-10T06:38:44.144Z,32.95
2022-11-10T06:41:07.474Z,34.58
2022-11-10T06:43:30.526Z,32.70
2022-11-10T06:45:52.990Z,34.03
2022-11-10T06:48:17.588Z,32.60
2022-11-10T06:50:40.635Z,31.20
2022-11-10T06:53:03.541Z,30.33
2022-11-10T06:55:27.056Z,31.30
2022-11-10T06:57:50.155Z,31.17
2022-11-10T07:00:14.232Z,31.27
2022-11-10T07:02:36.981Z,30.92
2022-11-10T07:05:01.488Z,31.92
2022-11-10T07:07:24.291Z,30.90
2022-11-10T07:09:47.608Z,32.55
2022-11-10T07:12:10.506Z,30.23
2022-11-10T07:14:33.510Z,30.88
2022-11-10T07:16:56.546Z,30.70
2022-11-10T07:19:19.582Z,29.80
2022-11-10T07:21:44.955Z,31.33
2022-11-10T07:24:08.623Z,29.52
2022-11-10T07:26:31.275Z,29.10
2022-11-10T07:28:54.071Z,31.15
2022-11-10T07:31:17.372Z,27.42
2022-11-10T07:33:40.380Z,29.45
2022-11-10T07:36:04.844Z,29.60
2022-11-10T07:38:28.793Z,27.23
2022-11-10T07:40:53.282Z,21.98
2022-11-10T07:43:16.175Z,25.48
2022-11-10T07:45:38.947Z,27.75
2022-11-10T07:48:01.933Z,20.38
2022-11-10T07:50:24.462Z,25.70
2022-11-10T07:52:47.554Z,26.95
2022-11-10T07:55:12.625Z,28.27
2022-11-10T07:57:35.425Z,26.27
2022-11-10T07:59:58.532Z,27.08
2022-11-10T08:02:21.431Z,27.08
2022-11-10T08:04:44.196Z,26.13
2022-11-10T08:07:07.202Z,25.27
2022-11-10T08:09:30.612Z,25.58
2022-11-10T08:11:54.852Z,25.63
2022-11-10T08:14:17.767Z,26.33
2022-11-10T08:16:40.510Z,24.67
2022-11-10T08:19:03.152Z,24.23
2022-11-10T08:21:26.193Z,25.33
2022-11-10T08:23:48.874Z,23.83
2022-11-10T08:26:13.204Z,25.42
2022-11-10T08:28:37.524Z,24.80
2022-11-10T08:31:05.163Z,25.30
2022-11-10T08:33:28.342Z,24.75
2022-11-10T08:35:52.956Z,24.85
2022-11-10T08:38:18.126Z,23.15
2022-11-10T08:40:42.184Z,23.77
2022-11-10T08:43:07.625Z,24.23
2022-11-10T08:45:32.123Z,24.27
2022-11-10T08:48:01.810Z,22.45
2022-11-10T08:50:24.797Z,22.63
2022-11-10T08:52:47.745Z,21.27
2022-11-10T08:55:10.706Z,22.80
2022-11-10T08:57:33.115Z,24.20
2022-11-10T08:59:55.893Z,22.55
2022-11-10T09:02:19.844Z,25.92
2022-11-10T09:04:42.522Z,23.80
2022-11-10T09:07:06.666Z,24.27
2022-11-10T09:09:29.409Z,24.75
2022-11-10T09:11:52.187Z,24.63
2022-11-10T09:14:14.777Z,24.55
2022-11-10T09:16:37.780Z,24.83
2022-11-10T09:19:01.839Z,24.42
2022-11-10T09:21:24.581Z,23.17
2022-11-10T09:23:47.461Z,23.65
2022-11-10T09:26:10.399Z,25.48
2022-11-10T09:28:32.944Z,25.02
2022-11-10T09:30:55.997Z,23.85
2022-11-10T09:33:18.821Z,24.15
2022-11-10T09:35:43.245Z,22.90
2022-11-10T09:38:05.926Z,22.27
2022-11-10T09:40:39.912Z,22.10
2022-11-10T09:43:04.279Z,22.70
2022-11-10T09:45:32.815Z,25.08
2022-11-10T09:48:03.429Z,24.13
2022-11-10T09:50:32.490Z,22.35
2022-11-10T09:52:57.900Z,22.27
2022-11-10T09:55:29.652Z,20.77
2022-11-10T09:57:57.651Z,22.38
2022-11-10T10:00:20.739Z,21.90
2022-11-10T10:02:48.400Z,22.00
2022-11-10T10:05:35.145Z,22.80
2022-11-10T10:08:03.351Z,22.60
2022-11-10T10:10:35.108Z,22.30
2022-11-10T10:13:10.858Z,22.90
2022-11-10T10:15:45.454Z,22.83
2022-11-10T10:18:27.250Z,23.02
2022-11-10T10:21:05.009Z,24.10
2022-11-10T10:24:07.033Z,22.88
2022-11-10T10:26:22.246Z,23.02
2022-11-10T10:28:47.434Z,25.88
2022-11-10T10:31:18.315Z,26.23
2022-11-10T10:33:41.235Z,25.35
2022-11-10T10:36:09.761Z,26.60
2022-11-10T10:38:38.881Z,24.70
2022-11-10T10:41:13.522Z,24.95
2022-11-10T10:43:36.412Z,26.33
2022-11-10T10:46:08.104Z,27.65
2022-11-10T10:48:36.899Z,27.35
2022-11-10T10:51:00.215Z,26.27
2022-11-10T10:53:25.371Z,28.05
2022-11-10T10:55:54.085Z,29.50
2022-11-10T10:58:26.867Z,28.20
2022-11-10T11:00:51.748Z,27.88
2022-11-10T11:03:23.158Z,27.67
2022-11-10T11:06:00.773Z,28.10
2022-11-10T11:08:25.667Z,28.15
2022-11-10T11:10:50.224Z,29.50
2022-11-10T11:13:17.701Z,30.52
2022-11-10T11:15:40.356Z,28.20
2022-11-10T11:18:04.940Z,29.75
2022-11-10T11:20:37.938Z,29.80
2022-11-10T11:23:07.871Z,28.13
2022-11-10T11:25:34.784Z,25.75
2022-11-10T11:28:11.357Z,23.25
2022-11-10T11:30:48.148Z,23.30
2022-11-10T11:33:34.526Z,23.80
2022-11-10T11:36:02.714Z,23.85
2022-11-10T11:38:32.626Z,23.52
2022-11-10T11:41:03.089Z,24.67
2022-11-10T11:43:55.464Z,23.33
2022-11-10T11:46:28.686Z,24.30
2022-11-10T11:49:05.293Z,23.10
2022-11-10T11:51:33.441Z,23.35
2022-11-10T11:54:15.024Z,24.00
2022-11-10T11:56:40.657Z,24.45
2022-11-10T11:59:23.592Z,23.92
2022-11-10T12:02:03.888Z,21.85
2022-11-10T12:04:47.383Z,22.60
2022-11-10T12:07:25.990Z,23.67
2022-11-10T12:09:50.838Z,23.58
2022-11-10T12:12:44.647Z,23.08
2022-11-10T12:15:24.064Z,24.02
2022-11-10T12:17:57.862Z,22.67
2022-11-10T12:20:36.889Z,25.83
2022-11-10T12:23:06.433Z,28.75
2022-11-10T12:25:35.578Z,28.60
2022-11-10T12:28:14.487Z,29.02
2022-11-10T12:30:38.820Z,27.95
2022-11-10T12:33:05.652Z,26.55
2022-11-10T12:35:29.786Z,28.30
2022-11-10T12:37:56.090Z,28.23
2022-11-10T12:40:20.774Z,27.38
2022-11-10T12:42:44.977Z,28.05
2022-11-10T12:45:09.744Z,30.15
2022-11-10T12:47:41.119Z,27.40
2022-11-10T12:50:20.634Z,27.63
2022-11-10T12:52:50.043Z,29.80
2022-11-10T12:55:15.021Z,27.63
2022-11-10T12:57:39.224Z,28.55
2022-11-10T13:00:03.895Z,28.25
2022-11-10T13:02:31.486Z,28.40
2022-11-10T13:05:27.126Z,28.55
2022-11-10T13:07:52.981Z,29.58
2022-11-10T13:10:24.423Z,31.08
2022-11-10T13:13:00.668Z,30.25
2022-11-10T13:15:51.558Z,30.25
2022-11-10T13:18:24.798Z,30.63
2022-11-10T13:20:53.260Z,31.33
2022-11-10T13:23:31.349Z,31.20
2022-11-10T13:26:02.406Z,32.75
2022-11-10T13:29:02.840Z,33.13
2022-11-10T13:31:41.563Z,36.28
2022-11-10T13:34:10.927Z,33.63
2022-11-10T13:36:40.490Z,31.70
2022-11-10T13:39:23.955Z,31.92
2022-11-10T13:41:48.666Z,35.63
2022-11-10T13:44:24.513Z,36.20
2022-11-10T13:47:10.339Z,36.90
2022-11-10T13:49:57.842Z,35.85
2022-11-10T13:52:26.790Z,34.80
2022-11-10T13:55:16.429Z,34.58
2022-11-10T13:57:41.426Z,35.38
2022-11-10T14:00:24.370Z,36.60
2022-11-10T14:02:53.040Z,35.03
2022-11-10T14:06:03.667Z,36.35
2022-11-10T14:08:32.572Z,36.00
2022-11-10T14:11:00.668Z,36.80
2022-11-10T14:13:30.463Z,35.97
2022-11-10T14:15:55.185Z,37.63
2022-11-10T14:18:22.254Z,35.70
2022-11-10T14:20:47.274Z,35.35
2022-11-10T14:23:19.674Z,34.60
2022-11-10T14:25:45.648Z,34.78
2022-11-10T14:28:37.854Z,32.35
2022-11-10T14:31:01.374Z,35.70
2022-11-10T14:33:26.113Z,32.50
2022-11-10T14:35:51.473Z,36.58
2022-11-10T14:38:21.960Z,33.58
2022-11-10T14:40:45.093Z,35.42
2022-11-10T14:43:25.447Z,33.60
2022-11-10T14:45:53.645Z,34.30
2022-11-10T14:48:21.198Z,42.75
2022-11-10T14:50:45.193Z,77.45
2022-11-10T14:53:15.886Z,80.68
2022-11-10T14:55:39.339Z,63.22
2022-11-10T14:58:11.682Z,50.80
2022-11-10T15:00:38.474Z,76.53
2022-11-10T15:03:02.768Z,199.68
2022-11-10T15:05:26.152Z,53.22
2022-11-10T15:07:50.245Z,38.10
2022-11-10T15:10:18.353Z,33.85
2022-11-10T15:12:42.274Z,34.67
2022-11-10T15:15:23.322Z,48.13
2022-11-10T15:17:51.801Z,64.15
2022-11-10T15:20:42.955Z,50.35
2022-11-10T15:23:13.893Z,35.20
2022-11-10T15:25:40.406Z,34.60
2022-11-10T15:28:07.022Z,33.45
2022-11-10T15:30:30.703Z,37.33
2022-11-10T15:32:56.827Z,51.80
2022-11-10T15:35:30.449Z,58.10
2022-11-10T15:38:02.793Z,40.25
2022-11-10T15:40:35.578Z,34.30
2022-11-10T15:43:17.916Z,37.10
2022-11-10T15:45:41.409Z,38.00
2022-11-10T15:48:04.108Z,39.38
2022-11-10T15:50:26.749Z,37.58
2022-11-10T15:52:49.415Z,38.83
2022-11-10T15:55:22.924Z,46.30
2022-11-10T15:57:46.088Z,42.92
2022-11-10T16:00:13.881Z,42.13
2022-11-10T16:02:37.570Z,42.30
2022-11-10T16:05:00.473Z,42.25
2022-11-10T16:07:23.694Z,57.33
2022-11-10T16:09:46.743Z,42.88
2022-11-10T16:12:16.360Z,44.35
2022-11-10T16:17:02.281Z,37.28
2022-11-10T16:19:25.210Z,43.40
2022-11-10T16:21:48.325Z,41.35
2022-11-10T16:24:11.229Z,40.25
2022-11-10T16:26:35.418Z,41.25
2022-11-10T16:28:59.690Z,40.28
2022-11-10T16:31:23.153Z,41.88
2022-11-10T16:33:47.736Z,42.15
2022-11-10T16:36:16.438Z,46.28
2022-11-10T16:38:42.936Z,46.08
2022-11-10T16:41:05.998Z,47.28
2022-11-10T16:43:30.003Z,49.15
2022-11-10T16:45:56.928Z,48.47
2022-11-10T16:48:22.640Z,49.05
2022-11-10T16:50:46.787Z,51.17
2022-11-10T16:53:20.510Z,51.53
2022-11-10T16:55:46.025Z,47.67
2022-11-10T16:58:09.434Z,51.40
2022-11-10T17:00:32.356Z,50.05
2022-11-10T17:03:03.682Z,48.08
2022-11-10T17:05:28.295Z,323.92
2022-11-10T17:07:51.714Z,282.98
2022-11-10T17:10:16.170Z,215.38
2022-11-10T17:12:39.159Z,118.25
2022-11-10T17:15:02.413Z,116.40
2022-11-10T17:17:26.169Z,91.32
2022-11-10T17:19:55.508Z,80.55
2022-11-10T17:22:20.530Z,77.60
2022-11-10T17:24:43.348Z,66.13
2022-11-10T17:27:07.058Z,69.15
2022-11-10T17:29:30.403Z,67.07
2022-11-10T17:31:53.044Z,66.95
2022-11-10T17:34:18.392Z,64.28
2022-11-10T17:36:42.825Z,69.47
2022-11-10T17:39:05.995Z,67.95
2022-11-10T17:41:31.431Z,67.10
2022-11-10T17:43:55.420Z,68.32
2022-11-10T17:46:18.104Z,71.18
2022-11-10T17:48:47.087Z,72.25
2022-11-10T17:51:17.747Z,76.60
2022-11-10T17:53:44.272Z,80.82
2022-11-10T17:56:07.988Z,89.25
2022-11-10T17:58:31.290Z,88.80
2022-11-10T18:00:55.705Z,83.97
2022-11-10T18:03:21.006Z,75.45
2022-11-10T18:05:45.186Z,78.72
2022-11-10T18:08:07.917Z,85.32
2022-11-10T18:10:32.530Z,81.03
2022-11-10T18:12:55.096Z,76.50
2022-11-10T18:15:18.517Z,74.72
2022-11-10T18:17:41.829Z,78.18
2022-11-10T18:20:05.984Z,82.78
2022-11-10T18:22:30.508Z,77.78
2022-11-10T18:24:53.721Z,70.20
2022-11-10T18:27:18.868Z,61.50
2022-11-10T18:29:42.167Z,63.88
2022-11-10T18:32:04.768Z,55.03
2022-11-10T18:34:29.550Z,53.38
2022-11-10T18:36:52.960Z,50.40
2022-11-10T18:39:19.723Z,49.85
2022-11-10T18:41:52.570Z,53.20
2022-11-10T18:44:16.767Z,52.25
2022-11-10T18:46:39.366Z,54.67
2022-11-10T18:49:02.364Z,55.58
2022-11-10T18:51:25.498Z,54.88
2022-11-10T18:53:49.414Z,56.75
2022-11-10T18:56:14.477Z,58.53
2022-11-10T18:58:38.547Z,59.85
2022-11-10T19:01:06.755Z,59.55
2022-11-10T19:03:29.771Z,56.90
2022-11-10T19:05:58.409Z,56.95
2022-11-10T19:08:21.529Z,59.35
2022-11-10T19:10:44.389Z,56.50
2022-11-10T19:13:07.708Z,62.35
2022-11-10T19:15:30.457Z,56.30
2022-11-10T19:17:54.840Z,58.95
2022-11-10T19:20:17.799Z,57.85
2022-11-10T19:22:40.740Z,58.20
2022-11-10T19:25:08.680Z,60.75
2022-11-10T19:27:32.657Z,62.03
2022-11-10T19:29:58.101Z,69.07
2022-11-10T19:32:24.699Z,69.78
2022-11-10T19:34:49.816Z,65.78
2022-11-10T19:37:14.176Z,66.00
2022-11-10T19:39:37.192Z,74.32
2022-11-10T19:42:00.276Z,76.07
2022-11-10T19:44:23.274Z,68.75
2022-11-10T19:46:47.002Z,69.25
2022-11-10T19:49:11.913Z,69.20
2022-11-10T19:51:36.655Z,69.57
2022-11-10T19:54:02.845Z,69.10
